»·PEaware :: VH-XZE KJFK-KBOS

VH-XZE :: KJFK-KBOS

FLIGHT INFORMATION

Flight Status: Arrived
Operator: Privately registered:
Australia
More flights under this callsign
Pilot: Mohamed Z. (17866)
Aircraft: BOEING 737-800
(B738)
More flights by this aircraft type
Origin: KJFK Kennedy Intl
United States
Destination: KBOS Logan Intl
United States
More flights between these airports :: More routes between these airports
Route: LIMBO V64 V363 DANAH V23 OCN
File this flight plan on PilotEdge
Remarks: Sample flight plan
Altitude:
(Current/Filed)
31,000ft
Speed:
(Current/Filed)
115kts
Departed: 11-Jan-18 07:43 AM
Arrived: 11-Jan-18 08:44 AM
Distance/Time
Traveled:
161nm/1:01
Distance/Time
To Go:
Arrived

Flight Plot

Page will automatically refresh every two minutes.

Flight plan parsing failed; only flown route is shown


Map Options




Map Legend


Flown Route
Filed Route
Departure Airport
Arrival Airport
Navaid (VOR, NDB)
Fix

Horizontal Profiles

Position Reports

Time Latitude Longitude Heading Altitude Ground
Speed
11-Jan-18 07:34 40.648557 -73.791785 171 15ft 0kts
11-Jan-18 07:35 40.648556 -73.791784 171 16ft 0kts
11-Jan-18 07:36 40.648556 -73.791784 171 16ft 0kts
11-Jan-18 07:37 40.648549 -73.791783 172 16ft 0kts
11-Jan-18 07:38 40.648548 -73.791783 172 16ft 0kts
11-Jan-18 07:39 40.648948 -73.791947 141 16ft 12kts
11-Jan-18 07:40 40.648522 -73.793607 240 16ft 25kts
11-Jan-18 07:41 40.649762 -73.796981 7 16ft 32kts
11-Jan-18 07:42 40.651943 -73.791388 105 16ft 34kts
11-Jan-18 07:43 40.651903 -73.786436 58 16ft 15kts
11-Jan-18 07:44 40.651415 -73.780892 120 16ft 38kts
11-Jan-18 07:45 40.647660 -73.771961 70 16ft 25kts
11-Jan-18 07:46 40.646433 -73.768005 122 16ft 0kts
11-Jan-18 07:47 40.644973 -73.764810 120 16ft 35kts
11-Jan-18 07:48 40.643895 -73.760336 43 16ft 7kts
11-Jan-18 07:49 40.646503 -73.765391 300 16ft 124kts
11-Jan-18 07:50 40.660954 -73.797042 305 1568ft 232kts
11-Jan-18 07:51 40.686874 -73.816271 9 3916ft 234kts
11-Jan-18 07:52 40.712910 -73.789913 46 6698ft 216kts
11-Jan-18 07:53 40.735912 -73.756878 46 9444ft 195kts
11-Jan-18 07:54 40.760144 -73.721884 46 12017ft 211kts
11-Jan-18 07:55 40.790426 -73.678242 46 14800ft 260kts
11-Jan-18 07:56 40.829117 -73.622629 46 17090ft 284kts
11-Jan-18 07:57 40.874421 -73.557589 46 19525ft 299kts
11-Jan-18 07:58 40.922868 -73.488134 46 21876ft 321kts
11-Jan-18 07:59 40.979631 -73.406883 46 24548ft 338kts
11-Jan-18 08:00 41.040685 -73.319394 47 27277ft 347kts
11-Jan-18 08:01 41.098234 -73.235956 47 29771ft 262kts
11-Jan-18 08:02 41.135070 -73.183262 46 30378ft 302kts
11-Jan-18 08:03 41.186143 -73.110906 46 28397ft 417kts
11-Jan-18 08:04 41.251945 -73.017980 46 26047ft 446kts
11-Jan-18 08:05 41.309866 -72.936282 46 24030ft 432kts
11-Jan-18 08:06 41.382333 -72.834124 46 23472ft 387kts
11-Jan-18 08:07 41.431106 -72.765401 46 23822ft 392kts
11-Jan-18 08:08 41.502079 -72.665516 46 22418ft 415kts
11-Jan-18 08:09 41.554872 -72.591308 46 20409ft 408kts
11-Jan-18 08:10 41.606534 -72.492434 55 17994ft 400kts
11-Jan-18 08:11 41.621155 -72.463028 55 17277ft 397kts
11-Jan-18 08:12 41.621155 -72.463028 55 17277ft 397kts
11-Jan-18 08:13 41.621155 -72.463028 55 17277ft 397kts
11-Jan-18 08:14 41.621155 -72.463028 55 17277ft 397kts
11-Jan-18 08:15 41.621155 -72.463028 55 17277ft 397kts
11-Jan-18 08:16 41.621155 -72.463028 55 17277ft 397kts
11-Jan-18 08:17 41.621155 -72.463028 55 17277ft 397kts
11-Jan-18 08:18 41.656463 -72.391932 55 15525ft 391kts
11-Jan-18 08:19 41.701507 -72.300889 56 13242ft 382kts
11-Jan-18 08:20 41.745197 -72.211528 56 11448ft 360kts
11-Jan-18 08:21 41.787363 -72.125125 56 11030ft 328kts
11-Jan-18 08:22 41.828883 -72.040176 56 11010ft 330kts
11-Jan-18 08:23 41.876797 -71.942278 56 10988ft 326kts
11-Jan-18 08:24 41.924500 -71.844944 56 10999ft 326kts
11-Jan-18 08:25 41.971440 -71.749297 56 10417ft 319kts
11-Jan-18 08:26 42.017935 -71.654678 55 7982ft 320kts
11-Jan-18 08:27 42.061078 -71.566930 55 7015ft 267kts
11-Jan-18 08:28 42.097974 -71.491987 55 5886ft 272kts
11-Jan-18 08:29 42.133044 -71.422281 54 5150ft 244kts
11-Jan-18 08:30 42.166014 -71.357351 54 4945ft 203kts
11-Jan-18 08:31 42.191558 -71.306424 55 4960ft 192kts
11-Jan-18 08:32 42.217426 -71.254574 55 4994ft 193kts
11-Jan-18 08:33 42.240821 -71.207711 55 4998ft 193kts
11-Jan-18 08:34 42.249335 -71.158641 128 4939ft 193kts
11-Jan-18 08:35 42.214919 -71.110581 135 2952ft 227kts
11-Jan-18 08:36 42.179969 -71.064214 135 2048ft 187kts
11-Jan-18 08:37 42.150228 -71.024952 135 1954ft 157kts
11-Jan-18 08:38 42.124479 -70.987110 92 1904ft 157kts
11-Jan-18 08:39 42.147997 -70.944608 45 2002ft 151kts
11-Jan-18 08:40 42.176558 -70.904917 45 2003ft 152kts
11-Jan-18 08:41 42.205105 -70.863151 76 1935ft 156kts
11-Jan-18 08:42 42.186719 -70.866603 304 1987ft 152kts
11-Jan-18 08:43 42.221867 -70.885102 345 1981ft 135kts
11-Jan-18 08:44 42.255317 -70.896936 345 2026ft 131kts
11-Jan-18 08:45 42.288641 -70.908682 345 2006ft 131kts
11-Jan-18 08:46 42.310461 -70.932177 314 1824ft 132kts
11-Jan-18 08:47 42.327978 -70.956908 304 1066ft 133kts
11-Jan-18 08:48 42.335880 -70.985953 307 495ft 127kts
11-Jan-18 08:49 42.348522 -71.008024 306 40ft 125kts
11-Jan-18 08:50 42.355929 -71.019661 51 17ft 16kts
11-Jan-18 08:51 42.356055 -71.019589 286 17ft 20kts
11-Jan-18 08:52 42.355178 -71.020625 124 16ft 33kts
11-Jan-18 08:53 42.349535 -71.008255 54 17ft 14kts
11-Jan-18 08:54 42.356741 -71.010377 330 20ft 82kts
11-Jan-18 08:55 42.360777 -71.016408 291 19ft 0kts
11-Jan-18 08:56 42.360867 -71.016744 290 19ft 0kts
11-Jan-18 08:57 42.360867 -71.016744 290 19ft 0kts

Navigation Log

Ident Type
Flight plan parsing failed, navigation log unavailable